Terminal Aerodrome Forecast
Issued by NWS Cleveland, OH

Home | Current Version | Previous Version | Graphics & Text | Print | Product List | Glossary On
Versions: 1 2 3 4 5 6 7 8 9 10 11 12 13 14 15 16 17 18 19 20 21 22 23 24 25 26 27 28 29 30 31
000
FTUS41 KCLE 221335 AAC
TAFCLE
TAF AMD
KCLE 221335Z 2214/2318 04011KT P6SM -RAPL OVC060
     FM221500 05010KT P6SM -RA BKN015 OVC050
     FM222000 04012KT P6SM OVC040
     FM230900 11009KT P6SM -RA OVC015
     FM231300 13006KT 3SM -RA BR OVC015=

USA.gov is the U.S. government's official web portal to all federal, state and local government web resources and services.